Dawsonville, Georgia
Current Conditions -  °F | °C
As of 2:15 PM on Friday 31 Oct 2014 (Local Time) from KCNI Reporting Station
Overcast Overcast  
Wind Chill: 54°   Ceiling: 8000
Heat Index: 54°   Visibility: 10mi
Dew Point: 39°   Wind: 3mph
Humidity: 58%   Direction: 300°WNW
Pressure: 29.91"   Gusts: NA
Location:  34.42°N, 84.12°W
Report Text: KCNI 311815Z AUTO 30003KT 10SM SCT065 OVC080 12/04 A2991 RMK AO2
Loading
Personal Weather Stations






























Interactive Weather Map
Tropical Storm Tracking
New forecast layout! Learn more

10-Day Weather Forecast

Advertisements
Track Severe Weather on mobile